Time;durP1;ratioP1;P1;durP2;ratioP2;P2;SDS_P1;SDS_P2;PMS_P1;PMS_P2;Temp;Humidity;BMP_temperature;BMP_pressure;BME280_temperature;BME280_humidity;BME280_pressure;Samples;Min_cycle;Max_cycle;Signal;HPM_P1;HPM_P2
2023/02/18 00:01:39;;;;;;;8.02;5.70;;;13.70;59.20;;;9.21;94.34;96713.13;4933323;28;20026;-59
2023/02/18 00:04:05;;;;;;;9.95;6.18;;;13.70;59.30;;;9.24;94.33;96717.13;4951655;28;20030;-57
2023/02/18 00:06:36;;;;;;;9.73;5.43;;;13.70;59.40;;;9.25;94.51;96719.59;4954488;28;20477;-56
2023/02/18 00:09:05;;;;;;;9.40;5.15;;;13.70;59.60;;;9.27;94.31;96720.19;4952079;28;20413;-55
2023/02/18 00:11:37;;;;;;;8.48;5.32;;;13.60;59.70;;;9.27;94.45;96716.69;4946954;28;20018;-58
2023/02/18 00:14:11;;;;;;;8.43;5.50;;;13.70;59.80;;;9.26;94.35;96720.38;4961199;28;20640;-55
2023/02/18 00:16:42;;;;;;;11.98;5.45;;;13.70;59.80;;;9.25;94.52;96708.16;4948774;28;20482;-58
2023/02/18 00:19:17;;;;;;;11.52;6.20;;;13.70;59.80;;;9.26;94.42;96705.25;4946197;28;20033;-59
2023/02/18 00:21:45;;;;;;;8.82;5.85;;;13.70;59.90;;;9.25;94.76;96711.59;4934014;28;20037;-56
2023/02/18 00:24:15;;;;;;;7.30;5.38;;;13.70;59.90;;;9.22;94.74;96700.63;4944149;28;20438;-59
2023/02/18 00:26:41;;;;;;;8.52;5.20;;;13.70;60.00;;;9.24;94.52;96699.38;4946267;29;20034;-57
2023/02/18 00:29:07;;;;;;;7.20;4.70;;;13.70;60.00;;;9.24;93.97;96693.22;4948360;28;20026;-56
2023/02/18 00:31:40;;;;;;;6.35;4.45;;;13.70;60.00;;;9.23;93.96;96692.41;4940009;28;20474;-55
2023/02/18 00:34:06;;;;;;;7.97;4.97;;;13.60;60.00;;;9.23;93.90;96688.94;4940457;28;20085;-57
2023/02/18 00:36:33;;;;;;;9.73;4.85;;;13.60;59.90;;;9.21;93.77;96683.88;4938992;28;20053;-54
2023/02/18 00:39:05;;;;;;;8.75;5.57;;;13.70;60.00;;;9.18;93.52;96689.63;4955012;28;20114;-57
2023/02/18 00:41:34;;;;;;;8.80;5.45;;;13.60;60.00;;;9.21;93.19;96685.69;4953070;28;20505;-58
2023/02/18 00:44:07;;;;;;;9.60;5.72;;;13.60;60.00;;;9.15;93.40;96689.25;4940881;28;20022;-58
2023/02/18 00:46:34;;;;;;;8.52;5.25;;;13.60;60.00;;;9.10;94.20;96691.81;4957499;28;20512;-56
2023/02/18 00:49:02;;;;;;;11.15;5.72;;;13.60;60.00;;;9.14;93.99;96688.44;4956717;28;20026;-55
2023/02/18 00:51:30;;;;;;;7.95;5.32;;;13.60;60.00;;;9.17;93.64;96687.19;4963903;28;20057;-57
2023/02/18 00:53:59;;;;;;;8.48;5.30;;;13.60;60.10;;;9.15;93.72;96681.28;4971540;28;20040;-57
2023/02/18 00:56:28;;;;;;;8.57;5.20;;;13.60;60.10;;;9.15;93.79;96679.47;4972040;28;20063;-59
2023/02/18 00:58:54;;;;;;;10.20;5.95;;;13.60;60.10;;;9.12;93.93;96684.41;4956397;28;20022;-55
2023/02/18 01:01:23;;;;;;;7.35;5.20;;;13.60;60.10;;;9.13;93.75;96686.84;4983040;28;20026;-59
2023/02/18 01:03:49;;;;;;;8.55;5.53;;;13.60;60.30;;;9.09;93.95;96684.84;4971428;28;20392;-57
2023/02/18 01:06:20;;;;;;;7.78;5.22;;;13.60;60.20;;;9.06;93.92;96682.66;4971030;28;20180;-58
2023/02/18 01:09:00;;;;;;;8.23;5.22;;;13.60;60.30;;;9.09;93.92;96688.34;4956049;28;20075;-58
2023/02/18 01:11:25;;;;;;;11.70;6.07;;;13.60;60.30;;;9.06;93.72;96677.34;4971769;28;20027;-57
2023/02/18 01:13:51;;;;;;;9.82;5.75;;;13.60;60.30;;;9.01;94.12;96676.19;4956757;28;20387;-60
2023/02/18 01:16:20;;;;;;;10.40;6.40;;;13.50;60.20;;;8.98;94.29;96670.50;4958268;28;20125;-60
2023/02/18 01:18:49;;;;;;;14.50;7.10;;;13.50;60.40;;;8.93;94.95;96670.38;4965129;28;20034;-60
2023/02/18 01:21:15;;;;;;;12.00;6.93;;;13.40;60.40;;;8.94;94.86;96661.38;4954816;28;20019;-58
2023/02/18 01:23:44;;;;;;;11.75;7.20;;;13.40;60.60;;;8.93;94.76;96657.09;4971293;28;20038;-58
2023/02/18 01:26:11;;;;;;;9.98;6.45;;;13.40;60.80;;;8.97;94.52;96660.94;4971520;28;20031;-56
2023/02/18 01:28:40;;;;;;;11.55;6.90;;;13.40;60.80;;;8.90;94.74;96654.88;4956120;28;20022;-57
2023/02/18 01:31:12;;;;;;;10.20;6.47;;;13.40;60.90;;;8.93;94.64;96651.78;4965780;28;20026;-59
2023/02/18 01:33:39;;;;;;;11.93;6.35;;;13.40;61.10;;;8.95;94.51;96650.50;4957432;28;20030;-57
2023/02/18 01:36:06;;;;;;;11.77;7.00;;;13.30;61.00;;;8.95;94.66;96655.84;4955883;28;20038;-60
2023/02/18 01:38:39;;;;;;;8.93;5.80;;;13.40;61.10;;;8.92;95.21;96643.00;4956308;28;20031;-59
2023/02/18 01:41:08;;;;;;;;;;;13.40;61.20;;;8.93;95.18;96641.97;4954391;28;20022;-57
2023/02/18 01:43:36;;;;;;;8.43;5.38;;;13.30;60.80;;;8.96;94.82;96644.19;4951665;28;20392;-57
2023/02/18 01:46:21;;;;;;;8.07;5.18;;;13.30;60.90;;;8.91;95.47;96638.72;4954356;28;20486;-60
2023/02/18 01:48:59;;;;;;;8.48;5.20;;;13.30;61.10;;;8.90;95.45;96637.13;4953171;28;20034;-58
2023/02/18 01:51:34;;;;;;;9.23;5.60;;;13.30;61.20;;;8.83;96.16;96638.25;4949359;28;20578;-58
2023/02/18 01:54:40;;;;;;;7.60;5.28;;;13.30;61.30;;;8.83;96.54;96646.22;4951523;28;20035;-60
2023/02/18 01:57:17;;;;;;;10.02;6.32;;;13.30;61.60;;;8.85;96.42;96642.28;4967315;28;20085;-59
2023/02/18 01:59:47;;;;;;;9.00;6.13;;;13.20;61.60;;;8.87;96.05;96639.41;4967505;28;20027;-58
2023/02/18 02:02:20;;;;;;;11.10;6.70;;;13.20;61.50;;;8.85;96.06;96644.16;4953914;28;20097;-60
2023/02/18 02:04:48;;;;;;;9.82;6.15;;;13.20;61.70;;;8.84;96.16;96638.03;4949289;28;20039;-59
2023/02/18 02:07:28;;;;;;;12.13;5.97;;;13.20;61.70;;;8.83;96.70;96635.59;4950920;28;20555;-58
2023/02/18 02:09:58;;;;;;;9.88;6.25;;;13.20;61.90;;;8.84;96.58;96639.84;4966312;28;20027;-58
2023/02/18 02:12:42;;;;;;;9.40;5.53;;;13.20;62.00;;;8.81;96.98;96635.81;4954088;28;20019;-55
2023/02/18 02:15:13;;;;;;;6.07;4.20;;;13.20;62.70;;;8.78;97.70;96638.94;4953245;28;20034;-57
2023/02/18 02:18:07;;;;;;;7.10;4.07;;;13.10;62.10;;;8.82;97.90;96641.94;4952609;28;20068;-57
2023/02/18 02:21:33;;;;;;;5.97;4.10;;;13.10;62.30;;;8.86;97.99;96643.91;4942821;28;20039;-58
2023/02/18 02:24:53;;;;;;;9.38;4.45;;;13.10;62.30;;;8.88;98.23;96633.88;4959226;28;20033;-58
2023/02/18 02:27:48;;;;;;;6.32;4.20;;;13.20;62.70;;;8.94;98.10;96638.28;4945681;28;20076;-56
2023/02/18 02:31:20;;;;;;;5.68;3.65;;;13.20;62.70;;;8.95;98.37;96634.56;4955259;28;20057;-57
2023/02/18 02:34:05;;;;;;;5.65;3.90;;;13.20;62.80;;;8.98;98.07;96631.47;4940113;28;20150;-55
2023/02/18 02:37:24;;;;;;;5.40;3.92;;;13.30;62.90;;;8.99;98.67;96626.94;4952083;28;20110;-59
2023/02/18 02:40:25;;;;;;;9.55;4.13;;;13.30;62.90;;;9.07;98.13;96620.50;4956542;28;20030;-58
2023/02/18 02:43:12;;;;;;;6.25;3.88;;;13.30;62.90;;;9.13;97.51;96617.72;4952100;28;20027;-57
2023/02/18 02:45:59;;;;;;;6.72;3.83;;;13.40;62.90;;;9.11;97.61;96611.03;4951392;28;20493;-58
2023/02/18 02:49:11;;;;;;;4.50;3.60;;;13.40;62.80;;;9.06;97.63;96610.88;4959736;28;20433;-60
2023/02/18 02:51:55;;;;;;;5.82;3.55;;;13.40;62.80;;;9.07;97.41;96604.56;4960412;28;20129;-58
2023/02/18 02:54:27;;;;;;;5.30;4.07;;;13.40;62.80;;;9.09;97.05;96599.81;4931545;28;20045;-57
2023/02/18 02:57:18;;;;;;;6.32;3.83;;;13.40;62.80;;;9.10;96.69;96602.25;4951157;28;20058;-58
2023/02/18 03:00:00;;;;;;;5.75;3.65;;;13.40;62.80;;;9.12;96.36;96599.34;4951025;28;20050;-57
2023/02/18 03:03:16;;;;;;;6.43;4.07;;;13.40;62.80;;;9.07;95.96;96591.25;4926168;28;20486;-58
2023/02/18 03:06:25;;;;;;;7.15;4.05;;;13.50;62.90;;;9.09;95.57;96597.13;4951489;28;20126;-57
2023/02/18 03:09:24;;;;;;;5.45;3.92;;;13.40;62.70;;;9.09;95.43;96591.81;4952519;28;20424;-58
2023/02/18 03:12:30;;;;;;;6.53;4.13;;;13.40;62.60;;;9.10;94.94;96588.16;4951434;28;20046;-58
2023/02/18 03:15:35;;;;;;;7.40;4.28;;;13.40;62.70;;;9.07;94.82;96594.72;4935019;28;20031;-58
2023/02/18 03:18:42;;;;;;;10.30;4.95;;;13.40;62.60;;;9.08;94.50;96587.56;4948556;28;20023;-56
2023/02/18 03:21:44;;;;;;;4.80;3.75;;;13.40;62.60;;;9.09;94.10;96586.50;4951989;28;20029;-59
2023/02/18 03:24:30;;;;;;;7.65;4.18;;;13.40;62.60;;;9.09;93.84;96594.47;4950092;28;20084;-56
2023/02/18 03:27:26;;;;;;;6.57;4.72;;;13.40;62.50;;;9.08;93.47;96598.19;4952092;28;20022;-56
2023/02/18 03:30:15;;;;;;;6.10;4.25;;;13.40;62.40;;;9.08;93.13;96592.88;4949771;28;20108;-58
2023/02/18 03:32:59;;;;;;;6.47;3.95;;;13.40;62.40;;;9.07;92.55;96597.38;4950821;28;20450;-56
2023/02/18 03:35:27;;;;;;;8.27;4.03;;;13.40;62.30;;;9.05;92.76;96591.47;4950863;28;20034;-56
2023/02/18 03:38:50;;;;;;;7.05;4.75;;;13.40;62.10;;;9.10;92.50;96585.50;4946585;28;20031;-55
2023/02/18 03:41:16;;;;;;;7.57;4.32;;;13.40;62.10;;;9.04;92.08;96590.69;4951669;28;20037;-56
2023/02/18 03:43:52;;;;;;;7.60;4.78;;;13.40;62.00;;;9.03;91.72;96588.25;4946317;28;20034;-55
2023/02/18 03:46:22;;;;;;;6.85;4.18;;;13.50;62.10;;;8.98;91.55;96585.47;4939958;28;20081;-55
2023/02/18 03:48:47;;;;;;;6.45;4.00;;;13.40;61.90;;;9.00;91.34;96584.22;4933607;28;20026;-58
2023/02/18 03:51:18;;;;;;;9.65;4.57;;;13.40;61.90;;;9.00;91.24;96594.03;4951389;28;20125;-55
2023/02/18 03:54:00;;;;;;;6.82;4.43;;;13.40;61.80;;;8.98;90.71;96594.25;4951152;28;20335;-55
2023/02/18 03:56:27;;;;;;;6.03;3.58;;;13.40;61.90;;;8.97;90.53;96592.63;4962557;28;20109;-57
2023/02/18 03:58:52;;;;;;;5.10;4.10;;;13.40;61.70;;;8.96;90.34;96601.66;4962738;28;20069;-57
2023/02/18 04:01:19;;;;;;;7.85;5.32;;;13.40;61.70;;;8.98;90.08;96598.75;4942079;28;20429;-58
2023/02/18 04:03:54;;;;;;;5.95;4.43;;;13.40;61.70;;;8.96;89.72;96585.72;4937397;28;20374;-55
2023/02/18 04:06:22;;;;;;;9.20;5.40;;;13.40;61.70;;;8.97;89.81;96589.19;4958172;28;20042;-58
2023/02/18 04:08:49;;;;;;;8.73;5.05;;;13.40;61.60;;;8.95;89.94;96588.59;4948874;28;20120;-56
2023/02/18 04:11:20;;;;;;;8.18;4.57;;;13.40;61.60;;;8.92;89.51;96589.84;4955179;28;20022;-59
2023/02/18 04:13:55;;;;;;;8.07;4.47;;;13.30;61.50;;;8.91;89.26;96588.25;4953619;28;20162;-59
2023/02/18 04:16:21;;;;;;;6.88;3.63;;;13.40;61.50;;;8.94;89.28;96589.63;4957205;28;20025;-56
2023/02/18 04:18:59;;;;;;;7.28;4.00;;;13.30;61.50;;;8.90;89.21;96597.25;4954392;28;20430;-58
2023/02/18 04:21:26;;;;;;;7.93;4.38;;;13.30;61.50;;;8.94;89.04;96593.09;4951898;28;20034;-56
2023/02/18 04:23:59;;;;;;;4.63;3.60;;;13.30;61.40;;;8.91;88.68;96592.75;4962468;28;20031;-57
2023/02/18 04:26:31;;;;;;;;;;;13.30;61.30;;;8.92;88.39;96600.47;4957105;28;20065;-58
2023/02/18 04:29:26;;;;;;;5.70;3.58;;;13.30;61.20;;;8.94;88.06;96594.94;4940457;28;20290;-56
2023/02/18 04:31:52;;;;;;;5.10;3.70;;;13.30;61.20;;;8.96;87.99;96591.03;4935551;29;20038;-60
2023/02/18 04:34:21;;;;;;;9.35;3.70;;;13.30;61.00;;;8.96;87.71;96588.38;4958886;28;20042;-60
2023/02/18 04:36:53;;;;;;;7.63;4.32;;;13.30;61.00;;;8.97;87.33;96589.19;4959651;28;20026;-58
2023/02/18 04:39:18;;;;;;;5.93;3.75;;;13.30;61.00;;;8.93;87.67;96585.34;4946515;29;20043;-57
2023/02/18 04:41:47;;;;;;;5.43;3.78;;;13.30;60.90;;;8.90;87.50;96581.31;4951643;28;20393;-59
2023/02/18 04:44:21;;;;;;;4.60;2.95;;;13.30;60.90;;;8.84;87.58;96579.56;4966596;28;20064;-56
2023/02/18 04:46:50;;;;;;;8.60;3.90;;;13.30;60.80;;;8.78;87.80;96569.88;4956306;28;20467;-59
2023/02/18 04:49:16;;;;;;;5.82;3.80;;;13.20;60.70;;;8.78;87.82;96575.19;4957181;28;20377;-54
2023/02/18 04:51:44;;;;;;;9.05;4.05;;;13.20;60.70;;;8.76;88.13;96579.91;4946151;28;20054;-60
2023/02/18 04:54:16;;;;;;;6.25;3.75;;;13.20;61.50;;;8.70;88.15;96583.47;4938323;29;20430;-59
2023/02/18 04:56:42;;;;;;;6.28;4.00;;;13.10;60.70;;;8.65;88.35;96576.19;4930403;29;20042;-59
2023/02/18 04:59:11;;;;;;;4.60;3.80;;;13.10;60.70;;;8.60;88.55;96586.69;4937942;29;20050;-59
2023/02/18 05:01:40;;;;;;;4.88;3.65;;;13.10;60.80;;;8.61;88.51;96585.63;4931656;29;20042;-59
2023/02/18 05:04:06;;;;;;;6.80;3.53;;;13.00;60.80;;;8.58;88.53;96583.44;4933576;29;20130;-59
2023/02/18 05:06:32;;;;;;;5.90;3.58;;;13.00;60.80;;;8.56;88.85;96575.72;4936496;29;20097;-57
2023/02/18 05:08:58;;;;;;;8.38;4.18;;;13.00;60.90;;;8.57;88.63;96572.00;4934123;29;20105;-58
2023/02/18 05:11:34;;;;;;;6.65;3.58;;;13.00;60.90;;;8.56;88.80;96578.38;4920090;29;20109;-54
2023/02/18 05:14:00;;;;;;;4.25;3.00;;;13.00;60.90;;;8.55;88.72;96574.09;4929110;29;20023;-56
2023/02/18 05:16:26;;;;;;;8.65;4.55;;;13.00;61.00;;;8.56;88.69;96573.06;4931481;29;20042;-55
2023/02/18 05:18:55;;;;;;;8.30;3.80;;;12.90;60.90;;;8.57;88.52;96569.34;4933688;29;20047;-56
2023/02/18 05:21:21;;;;;;;6.15;3.90;;;13.00;61.00;;;8.60;88.47;96581.38;4933323;29;20386;-59
2023/02/18 05:23:46;;;;;;;8.95;4.00;;;13.00;61.00;;;8.60;88.56;96575.25;4932549;29;20023;-57
2023/02/18 05:26:12;;;;;;;5.82;3.60;;;13.00;61.00;;;8.60;88.45;96576.06;4947168;28;20081;-58
2023/02/18 05:28:45;;;;;;;7.13;4.47;;;13.00;60.90;;;8.62;88.36;96573.16;4941854;28;20073;-59
2023/02/18 05:31:14;;;;;;;6.70;4.20;;;13.00;61.00;;;8.64;88.15;96582.53;4938598;28;20057;-57
2023/02/18 05:33:45;;;;;;;6.65;4.13;;;13.00;60.90;;;8.67;88.10;96581.25;4942063;28;20030;-57
2023/02/18 05:36:15;;;;;;;6.00;3.90;;;13.00;60.90;;;8.66;87.96;96571.69;4935367;28;20039;-57
2023/02/18 05:38:43;;;;;;;6.43;4.00;;;13.00;60.90;;;8.65;88.09;96581.50;4936236;28;20157;-59
2023/02/18 05:41:09;;;;;;;4.88;3.78;;;13.00;60.90;;;8.63;88.25;96577.44;4932846;29;20042;-58
2023/02/18 05:46:28;;;;;;;5.80;3.80;;;13.00;60.90;;;8.60;88.33;96581.38;4924079;29;20466;-59
2023/02/18 05:48:54;;;;;;;4.78;3.00;;;13.00;60.80;;;8.58;88.34;96583.44;4933161;29;20027;-55
2023/02/18 05:51:26;;;;;;;5.80;2.88;;;13.00;60.80;;;8.53;88.64;96580.66;4916683;29;20042;-54
2023/02/18 05:53:52;;;;;;;5.63;2.92;;;13.00;60.80;;;8.56;88.57;96575.72;4932212;29;20057;-59
2023/02/18 05:56:18;;;;;;;4.82;3.10;;;13.00;60.80;;;8.56;88.41;96574.91;4929321;29;20039;-58
2023/02/18 05:58:46;;;;;;;7.47;3.15;;;13.00;60.70;;;8.57;88.46;96576.50;4931258;29;20025;-55
2023/02/18 06:01:15;;;;;;;5.70;3.13;;;13.00;60.80;;;8.57;88.41;96576.50;4931834;29;20030;-57
2023/02/18 06:04:00;;;;;;;5.28;3.17;;;13.00;60.70;;;8.54;88.45;96572.47;4933924;29;20577;-56
2023/02/18 06:06:25;;;;;;;6.10;2.85;;;13.00;60.80;;;8.51;88.75;96578.22;4922077;29;20465;-57
2023/02/18 06:09:08;;;;;;;5.22;3.03;;;13.00;60.70;;;8.50;88.60;96579.28;4934905;28;20109;-58
2023/02/18 06:11:35;;;;;;;4.38;3.25;;;13.00;60.80;;;8.47;88.96;96576.25;4935819;28;20034;-57
2023/02/18 06:14:02;;;;;;;5.22;3.20;;;12.90;60.80;;;8.45;88.90;96578.31;4928864;29;20027;-57
2023/02/18 06:16:28;;;;;;;5.00;3.17;;;12.90;60.70;;;8.46;89.15;96577.28;4928692;28;20035;-57
2023/02/18 06:18:58;;;;;;;5.22;3.10;;;12.90;60.70;;;8.51;88.82;96590.69;4928403;29;20020;-57
2023/02/18 06:21:30;;;;;;;4.13;2.95;;;12.90;60.80;;;8.49;88.86;96590.09;4930502;29;20034;-56
2023/02/18 06:24:02;;;;;;;4.73;3.50;;;12.90;60.80;;;8.48;88.81;96586.63;4932829;29;20031;-55
2023/02/18 06:26:34;;;;;;;4.93;3.10;;;12.90;60.80;;;8.49;88.93;96587.44;4936067;28;20286;-56
2023/02/18 06:29:00;;;;;;;4.63;2.65;;;12.90;60.70;;;8.46;88.86;96586.06;4940572;28;20035;-57
2023/02/18 06:31:31;;;;;;;3.65;2.83;;;12.90;60.70;;;8.37;89.29;96584.75;4932082;29;20490;-58
2023/02/18 06:33:57;;;;;;;5.00;3.00;;;12.90;60.70;;;8.37;89.31;96584.75;4928874;29;20028;-58
2023/02/18 06:36:31;;;;;;;4.88;3.05;;;12.90;60.60;;;8.35;89.45;96582.31;4931794;29;20437;-57
2023/02/18 06:38:58;;;;;;;5.15;3.00;;;12.90;60.70;;;8.40;89.18;96579.00;4928785;28;20543;-57
2023/02/18 06:41:27;;;;;;;6.95;3.50;;;12.90;60.60;;;8.43;88.90;96570.59;4928631;29;20083;-56
2023/02/18 06:43:52;;;;;;;4.75;3.35;;;12.90;60.70;;;8.47;89.15;96577.06;4931408;28;20053;-59
2023/02/18 06:46:20;;;;;;;5.85;3.28;;;12.90;60.70;;;8.49;88.93;96582.13;4920060;29;20070;-58
2023/02/18 06:48:47;;;;;;;5.63;3.10;;;13.00;60.70;;;8.48;88.76;96570.72;4931962;29;20106;-58
2023/02/18 06:51:15;;;;;;;5.78;3.60;;;13.00;60.70;;;8.50;88.85;96571.31;4927923;28;20590;-56
2023/02/18 06:53:44;;;;;;;5.25;3.10;;;13.00;60.70;;;8.56;88.65;96573.06;4972187;28;20042;-56
2023/02/18 06:56:10;;;;;;;5.38;3.15;;;13.10;60.60;;;8.58;88.66;96565.66;4968870;28;20018;-58
2023/02/18 06:58:37;;;;;;;5.72;3.20;;;13.10;60.50;;;8.62;88.67;96566.03;4967066;28;20034;-54
2023/02/18 07:01:03;;;;;;;6.53;3.13;;;13.20;60.50;;;8.67;88.42;96566.13;4950152;28;20030;-56
2023/02/18 07:03:29;;;;;;;4.10;2.88;;;13.30;60.40;;;8.70;87.75;96567.53;4979554;28;20034;-57
2023/02/18 07:05:55;;;;;;;6.20;4.13;;;13.30;60.30;;;8.75;87.45;96570.31;4981006;28;20555;-55
2023/02/18 07:08:24;;;;;;;10.30;5.18;;;13.30;60.20;;;8.77;87.28;96563.75;4955882;28;20026;-55
2023/02/18 07:10:50;;;;;;;7.18;4.60;;;13.40;60.10;;;8.85;86.96;96564.44;4982366;28;20366;-55
2023/02/18 07:13:18;;;;;;;5.50;3.55;;;13.40;60.00;;;8.90;86.24;96567.19;4951218;28;20102;-58
2023/02/18 07:15:44;;;;;;;4.30;3.50;;;13.50;60.00;;;8.96;85.62;96568.94;4961879;28;20133;-58
2023/02/18 07:18:10;;;;;;;8.65;4.07;;;13.60;59.90;;;9.05;85.42;96572.88;4954901;28;20109;-56
2023/02/18 07:20:36;;;;;;;6.05;3.33;;;13.70;59.80;;;9.09;84.51;96574.06;4966874;28;20069;-57
2023/02/18 07:23:02;;;;;;;9.75;5.57;;;13.80;59.70;;;9.17;84.90;96570.22;4954937;28;20034;-59
2023/02/18 07:25:30;;;;;;;7.18;4.97;;;13.80;59.50;;;9.18;83.86;96561.22;4967867;28;20472;-56
2023/02/18 07:27:58;;;;;;;8.43;4.63;;;13.90;59.40;;;9.19;83.51;96565.50;4959754;28;20350;-58
2023/02/18 07:30:30;;;;;;;7.00;4.18;;;14.00;59.20;;;9.25;83.11;96556.59;4936214;28;23239;-56
2023/02/18 07:32:56;;;;;;;5.40;3.00;;;14.10;59.20;;;9.25;83.24;96569.91;4957766;28;20082;-59
2023/02/18 07:35:22;;;;;;;6.50;3.45;;;14.10;59.10;;;9.26;83.50;96561.66;4957823;28;20622;-56
2023/02/18 07:37:49;;;;;;;6.07;3.08;;;14.10;59.00;;;9.27;83.18;96565.13;4958140;28;20030;-58
2023/02/18 07:40:24;;;;;;;4.20;2.80;;;14.10;59.00;;;9.23;83.27;96570.09;4982068;28;20034;-58
2023/02/18 07:42:50;;;;;;;4.72;2.70;;;14.10;59.40;;;9.25;83.21;96568.03;4954957;28;20014;-57
2023/02/18 07:45:16;;;;;;;8.05;3.65;;;14.10;58.70;;;9.29;83.12;96570.25;4983357;28;20374;-55
2023/02/18 07:47:44;;;;;;;4.45;2.90;;;14.10;58.70;;;9.35;83.03;96564.78;4951937;28;20027;-54
2023/02/18 07:50:10;;;;;;;5.05;3.00;;;14.20;58.70;;;9.37;82.50;96560.06;4950622;28;20033;-58
2023/02/18 07:52:36;;;;;;;6.47;3.20;;;14.20;58.60;;;9.48;82.38;96563.75;4955909;28;20081;-58
2023/02/18 07:55:02;;;;;;;4.30;3.33;;;14.30;58.50;;;9.54;82.19;96562.81;4948742;28;20074;-57
2023/02/18 07:57:28;;;;;;;4.40;2.85;;;14.40;58.40;;;9.55;81.43;96567.06;4932865;28;20085;-58
2023/02/18 07:59:54;;;;;;;5.95;2.70;;;14.50;58.30;;;9.62;80.84;96572.25;4956101;28;20397;-55
2023/02/18 08:02:23;;;;;;;4.03;2.65;;;14.60;58.10;;;9.68;81.05;96561.53;4972286;28;20480;-56
2023/02/18 08:04:50;;;;;;;3.53;2.90;;;14.70;58.00;;;9.79;80.14;96573.16;4947129;28;20039;-55
2023/02/18 08:07:21;;;;;;;4.40;2.55;;;14.80;57.80;;;9.82;80.11;96564.72;4953649;28;20113;-58
2023/02/18 08:09:59;;;;;;;6.40;2.78;;;14.90;57.60;;;9.90;79.60;96571.50;4966767;28;20041;-55
2023/02/18 08:12:25;;;;;;;6.20;2.53;;;15.00;57.40;;;9.91;79.07;96568.63;4960341;28;20389;-56
2023/02/18 08:14:51;;;;;;;3.78;2.33;;;15.10;57.20;;;9.93;78.96;96568.38;4951940;28;20104;-58
2023/02/18 08:17:17;;;;;;;4.78;2.47;;;15.20;57.00;;;10.08;78.54;96574.00;4965247;28;20030;-57
2023/02/18 08:19:49;;;;;;;3.63;2.58;;;15.30;56.80;;;10.10;77.60;96571.91;4961596;28;20040;-59
2023/02/18 08:22:14;;;;;;;4.30;2.20;;;15.40;56.60;;;10.23;77.58;96570.03;4964281;28;20057;-59
2023/02/18 08:24:43;;;;;;;3.67;2.40;;;15.50;56.40;;;10.25;77.41;96575.91;4971820;28;20034;-56
2023/02/18 08:27:09;;;;;;;4.88;2.25;;;15.60;56.20;;;10.39;76.46;96583.41;4970780;28;20080;-58
2023/02/18 08:29:35;;;;;;;3.10;2.38;;;15.70;56.10;;;10.51;76.52;96579.88;4982376;28;20037;-55
2023/02/18 08:32:01;;;;;;;4.30;2.60;;;15.80;56.00;;;10.60;75.69;96581.13;4951578;28;20022;-59
2023/02/18 08:34:27;;;;;;;4.30;2.38;;;15.90;55.80;;;10.70;75.80;96578.63;4952164;28;20117;-59
2023/02/18 08:36:53;;;;;;;3.60;2.40;;;16.00;55.60;;;10.79;74.99;96574.50;4957171;28;20097;-60
2023/02/18 08:39:18;;;;;;;4.68;2.30;;;16.10;55.50;;;10.83;74.06;96578.31;4958479;28;20038;-58
2023/02/18 08:41:47;;;;;;;3.50;2.50;;;16.20;55.40;;;10.91;74.12;96578.97;4927744;28;20046;-59
2023/02/18 08:44:13;;;;;;;2.35;2.10;;;16.30;55.10;;;10.94;73.05;96583.81;4958396;28;20117;-58
2023/02/18 08:46:41;;;;;;;4.00;2.30;;;16.30;54.90;;;10.95;73.40;96582.75;4949825;29;20034;-58
2023/02/18 08:49:13;;;;;;;4.05;2.40;;;16.40;54.60;;;11.07;73.67;96578.97;4971931;28;20074;-58
2023/02/18 08:51:39;;;;;;;5.07;2.42;;;16.50;54.50;;;11.18;72.79;96571.91;4953044;28;20061;-56
2023/02/18 08:54:08;;;;;;;3.28;2.33;;;16.60;54.40;;;11.24;72.09;96575.47;4957094;28;20031;-56
2023/02/18 08:56:34;;;;;;;3.38;2.20;;;16.70;54.20;;;11.34;72.17;96579.09;4983892;28;20511;-56
2023/02/18 08:59:00;;;;;;;3.30;2.50;;;16.80;54.00;;;11.48;71.83;96576.88;4955755;28;20039;-55
2023/02/18 09:01:28;;;;;;;4.32;2.53;;;16.90;54.00;;;11.59;70.96;96572.50;4953403;28;20038;-58
2023/02/18 09:03:54;;;;;;;3.90;2.30;;;17.00;53.80;;;11.64;70.31;96569.91;4954766;28;20027;-51
2023/02/18 09:06:20;;;;;;;2.75;2.20;;;17.10;53.60;;;11.68;70.14;96568.34;4967596;28;20030;-52
2023/02/18 09:09:09;;;;;;;3.92;2.53;;;17.20;53.20;;;11.55;70.23;96566.03;4984887;28;20117;-51
2023/02/18 09:11:38;;;;;;;6.90;2.83;;;17.30;52.70;;;11.69;69.95;96563.81;4957036;28;20030;-58
2023/02/18 09:14:06;;;;;;;4.97;2.20;;;17.40;52.70;;;11.71;69.41;96565.19;4955037;28;20490;-52
2023/02/18 09:16:41;;;;;;;5.28;2.20;;;17.60;52.50;;;11.71;69.40;96561.72;4978432;28;20432;-53
2023/02/18 09:19:13;;;;;;;3.47;2.45;;;17.70;52.10;;;11.98;69.28;96569.81;4958443;28;20500;-53
2023/02/18 09:21:42;;;;;;;3.72;2.70;;;17.80;52.00;;;12.03;68.75;96562.69;4970957;28;20084;-56
2023/02/18 09:24:08;;;;;;;3.33;2.47;;;18.00;51.80;;;11.85;68.52;96557.66;4957646;28;20022;-52
2023/02/18 09:26:35;;;;;;;3.58;2.15;;;18.00;51.30;;;11.89;68.74;96558.75;4983252;28;20401;-53
2023/02/18 09:29:10;;;;;;;3.67;2.03;;;18.10;51.10;;;11.99;68.54;96556.22;4982533;28;20493;-55
2023/02/18 09:31:38;;;;;;;3.08;2.35;;;18.20;50.80;;;12.14;67.75;96555.56;4958963;28;20030;-58
2023/02/18 09:34:05;;;;;;;3.88;1.95;;;18.20;50.70;;;12.16;67.77;96560.66;4954750;28;20037;-52
2023/02/18 09:36:38;;;;;;;2.45;2.10;;;18.30;50.50;;;12.34;67.42;96543.50;4968780;28;20393;-51
2023/02/18 09:39:12;;;;;;;3.42;2.42;;;18.40;50.30;;;12.34;67.00;96540.81;4985319;28;20019;-55
2023/02/18 09:41:47;;;;;;;2.83;2.08;;;18.50;50.10;;;12.37;66.97;96545.66;4952866;28;20023;-58
2023/02/18 09:44:32;;;;;;;2.40;2.05;;;18.60;49.80;;;12.50;66.21;96538.06;4964804;28;20355;-58
2023/02/18 09:47:35;;;;;;;3.08;2.22;;;18.80;49.60;;;12.67;65.63;96537.94;4946388;28;20077;-56
2023/02/18 09:50:27;;;;;;;2.03;1.73;;;19.00;49.20;;;12.81;65.68;96538.31;4953742;28;20069;-53
2023/02/18 09:53:01;;;;;;;2.00;1.80;;;19.20;49.10;;;12.85;65.16;96530.56;4959825;28;20046;-54
2023/02/18 09:55:45;;;;;;;2.92;1.90;;;19.20;48.80;;;12.93;64.73;96532.78;4943932;28;20026;-52
2023/02/18 09:58:38;;;;;;;3.28;1.80;;;19.30;48.60;;;12.86;64.51;96534.88;4936451;28;20023;-56
2023/02/18 10:01:36;;;;;;;3.17;2.10;;;19.40;48.30;;;12.76;64.62;96540.16;4924405;28;20037;-52
2023/02/18 10:04:39;;;;;;;2.28;1.90;;;19.50;47.80;;;12.74;64.71;96541.19;4944734;28;20031;-55
2023/02/18 10:07:16;;;;;;;2.35;2.10;;;19.60;47.50;;;12.76;64.58;96546.28;4935686;28;20038;-55
2023/02/18 10:09:45;;;;;;;3.17;2.22;;;19.60;47.20;;;12.76;64.31;96545.50;4931503;29;20474;-55
2023/02/18 10:12:17;;;;;;;2.47;1.98;;;19.70;46.80;;;12.70;64.97;96545.44;4947504;28;20497;-54
2023/02/18 10:15:01;;;;;;;3.10;2.20;;;19.80;46.50;;;12.79;64.10;96543.13;4962930;28;20030;-57
2023/02/18 10:17:32;;;;;;;3.80;2.40;;;19.80;46.50;;;12.88;64.16;96528.22;4953195;28;20076;-52
2023/02/18 10:20:01;;;;;;;5.38;1.98;;;19.90;46.20;;;13.07;63.26;96536.66;4940420;28;20022;-57
2023/02/18 10:22:28;;;;;;;2.85;2.20;;;19.90;46.20;;;13.24;63.29;96538.34;4929189;28;20456;-58
2023/02/18 10:25:05;;;;;;;3.55;2.10;;;20.00;46.20;;;13.25;62.81;96542.66;4952727;28;20073;-53
2023/02/18 10:27:37;;;;;;;4.65;2.22;;;20.00;46.00;;;13.17;62.44;96531.34;4952219;28;20038;-56
2023/02/18 10:30:26;;;;;;;3.15;2.50;;;20.10;45.80;;;13.36;62.79;96533.66;4934393;28;20049;-55
2023/02/18 10:33:34;;;;;;;5.20;2.33;;;20.20;45.70;;;13.34;62.22;96538.44;4947111;28;20088;-52
2023/02/18 10:36:28;;;;;;;3.55;1.98;;;20.10;45.70;;;13.40;62.47;96540.09;4932569;28;20045;-51
2023/02/18 10:40:03;;;;;;;3.38;2.30;;;20.10;45.80;;;13.39;62.72;96541.97;4948682;28;20026;-50
2023/02/18 10:43:09;;;;;;;2.28;2.08;;;19.90;46.00;;;13.35;62.26;96540.03;4950557;28;20030;-52
2023/02/18 10:45:54;;;;;;;2.85;2.30;;;19.80;46.10;;;13.17;63.24;96541.25;4950504;28;20034;-55
2023/02/18 10:49:26;;;;;;;2.63;2.00;;;19.60;46.20;;;13.14;63.22;96544.44;4949659;28;20026;-54
2023/02/18 10:51:56;;;;;;;2.38;1.50;;;19.50;46.30;;;12.98;63.63;96537.38;4940837;28;20055;-58
2023/02/18 10:55:10;;;;;;;2.53;1.80;;;19.40;46.30;;;13.09;63.80;96541.72;4954235;28;20035;-51
2023/02/18 10:57:54;;;;;;;1.90;1.70;;;19.30;46.30;;;13.12;63.40;96543.88;4954537;28;31280;-61
2023/02/18 11:00:25;;;;;;;2.88;1.50;;;19.30;46.40;;;13.02;64.04;96536.59;4915602;29;20078;-54